sensor_id;sensor_type;location;lat;lon;timestamp;P1;durP1;ratioP1;P2;durP2;ratioP2
21591;SDS011;10958;50.892;3.992;2022-10-16T00:00:57;1.98;;;0.70;;
21591;SDS011;10958;50.892;3.992;2022-10-16T00:03:23;1.27;;;0.80;;
21591;SDS011;10958;50.892;3.992;2022-10-16T00:05:49;1.08;;;0.70;;
21591;SDS011;10958;50.892;3.992;2022-10-16T00:08:15;1.55;;;0.95;;
21591;SDS011;10958;50.892;3.992;2022-10-16T00:10:41;1.33;;;0.57;;
21591;SDS011;10958;50.892;3.992;2022-10-16T00:13:07;1.60;;;0.80;;
21591;SDS011;10958;50.892;3.992;2022-10-16T00:15:34;2.22;;;0.77;;
21591;SDS011;10958;50.892;3.992;2022-10-16T00:18:04;1.92;;;0.77;;
21591;SDS011;10958;50.892;3.992;2022-10-16T00:20:35;2.13;;;0.80;;
21591;SDS011;10958;50.892;3.992;2022-10-16T00:23:02;2.75;;;0.90;;
21591;SDS011;10958;50.892;3.992;2022-10-16T00:25:31;1.25;;;0.90;;
21591;SDS011;10958;50.892;3.992;2022-10-16T00:27:58;1.17;;;0.82;;
21591;SDS011;10958;50.892;3.992;2022-10-16T00:30:27;1.48;;;0.88;;
21591;SDS011;10958;50.892;3.992;2022-10-16T00:32:54;4.47;;;0.80;;
21591;SDS011;10958;50.892;3.992;2022-10-16T00:35:20;2.35;;;1.10;;
21591;SDS011;10958;50.892;3.992;2022-10-16T00:37:45;4.38;;;0.80;;
21591;SDS011;10958;50.892;3.992;2022-10-16T00:40:11;1.27;;;0.70;;
21591;SDS011;10958;50.892;3.992;2022-10-16T00:42:37;0.98;;;0.70;;
21591;SDS011;10958;50.892;3.992;2022-10-16T00:45:04;1.20;;;0.73;;
21591;SDS011;10958;50.892;3.992;2022-10-16T00:47:34;1.75;;;0.90;;
21591;SDS011;10958;50.892;3.992;2022-10-16T00:50:08;1.17;;;0.82;;
21591;SDS011;10958;50.892;3.992;2022-10-16T00:52:39;1.30;;;1.00;;
21591;SDS011;10958;50.892;3.992;2022-10-16T00:55:09;2.25;;;0.68;;
21591;SDS011;10958;50.892;3.992;2022-10-16T00:57:36;2.78;;;0.90;;
21591;SDS011;10958;50.892;3.992;2022-10-16T01:00:04;2.25;;;1.00;;
21591;SDS011;10958;50.892;3.992;2022-10-16T01:02:34;2.03;;;0.70;;
21591;SDS011;10958;50.892;3.992;2022-10-16T01:05:03;1.73;;;1.08;;
21591;SDS011;10958;50.892;3.992;2022-10-16T01:10:24;6.03;;;0.70;;
21591;SDS011;10958;50.892;3.992;2022-10-16T01:13:07;1.30;;;0.80;;
21591;SDS011;10958;50.892;3.992;2022-10-16T01:15:45;1.23;;;0.80;;
21591;SDS011;10958;50.892;3.992;2022-10-16T01:21:12;2.67;;;0.90;;
21591;SDS011;10958;50.892;3.992;2022-10-16T01:26:39;2.22;;;1.35;;
21591;SDS011;10958;50.892;3.992;2022-10-16T01:29:27;1.30;;;0.95;;
21591;SDS011;10958;50.892;3.992;2022-10-16T01:32:16;1.83;;;1.02;;
21591;SDS011;10958;50.892;3.992;2022-10-16T01:35:09;3.35;;;1.50;;
21591;SDS011;10958;50.892;3.992;2022-10-16T01:37:52;1.75;;;1.20;;
21591;SDS011;10958;50.892;3.992;2022-10-16T01:40:27;1.85;;;1.20;;
21591;SDS011;10958;50.892;3.992;2022-10-16T01:42:56;1.92;;;1.05;;
21591;SDS011;10958;50.892;3.992;2022-10-16T01:45:36;2.38;;;1.20;;
21591;SDS011;10958;50.892;3.992;2022-10-16T01:48:02;2.63;;;1.38;;
21591;SDS011;10958;50.892;3.992;2022-10-16T01:50:33;1.80;;;1.38;;
21591;SDS011;10958;50.892;3.992;2022-10-16T01:53:02;3.33;;;1.20;;
21591;SDS011;10958;50.892;3.992;2022-10-16T01:55:43;2.25;;;1.30;;
21591;SDS011;10958;50.892;3.992;2022-10-16T01:58:12;3.10;;;1.00;;
21591;SDS011;10958;50.892;3.992;2022-10-16T02:00:39;3.33;;;1.20;;
21591;SDS011;10958;50.892;3.992;2022-10-16T02:03:08;2.03;;;1.30;;
21591;SDS011;10958;50.892;3.992;2022-10-16T02:05:42;2.65;;;1.63;;
21591;SDS011;10958;50.892;3.992;2022-10-16T02:08:19;2.80;;;1.55;;
21591;SDS011;10958;50.892;3.992;2022-10-16T02:10:46;2.53;;;1.35;;
21591;SDS011;10958;50.892;3.992;2022-10-16T02:13:13;2.15;;;1.17;;
21591;SDS011;10958;50.892;3.992;2022-10-16T02:15:44;4.20;;;1.50;;
21591;SDS011;10958;50.892;3.992;2022-10-16T02:18:10;1.85;;;1.23;;
21591;SDS011;10958;50.892;3.992;2022-10-16T02:20:38;2.22;;;1.30;;
21591;SDS011;10958;50.892;3.992;2022-10-16T02:23:13;2.83;;;1.50;;
21591;SDS011;10958;50.892;3.992;2022-10-16T02:25:56;4.43;;;1.40;;
21591;SDS011;10958;50.892;3.992;2022-10-16T02:28:27;2.53;;;1.77;;
21591;SDS011;10958;50.892;3.992;2022-10-16T02:30:59;3.63;;;1.52;;
21591;SDS011;10958;50.892;3.992;2022-10-16T02:33:28;2.85;;;1.63;;
21591;SDS011;10958;50.892;3.992;2022-10-16T02:35:56;2.10;;;1.45;;
21591;SDS011;10958;50.892;3.992;2022-10-16T02:38:25;2.30;;;1.25;;
21591;SDS011;10958;50.892;3.992;2022-10-16T02:40:52;2.95;;;1.50;;
21591;SDS011;10958;50.892;3.992;2022-10-16T02:43:18;4.72;;;1.70;;
21591;SDS011;10958;50.892;3.992;2022-10-16T02:45:44;3.22;;;1.42;;
21591;SDS011;10958;50.892;3.992;2022-10-16T02:48:09;2.58;;;1.40;;
21591;SDS011;10958;50.892;3.992;2022-10-16T02:50:35;2.58;;;1.60;;
21591;SDS011;10958;50.892;3.992;2022-10-16T02:53:03;2.75;;;1.60;;
21591;SDS011;10958;50.892;3.992;2022-10-16T02:55:29;1.65;;;1.30;;
21591;SDS011;10958;50.892;3.992;2022-10-16T02:57:55;4.72;;;1.60;;
21591;SDS011;10958;50.892;3.992;2022-10-16T03:00:21;2.13;;;1.55;;
21591;SDS011;10958;50.892;3.992;2022-10-16T03:02:46;3.75;;;1.48;;
21591;SDS011;10958;50.892;3.992;2022-10-16T03:05:12;4.38;;;1.85;;
21591;SDS011;10958;50.892;3.992;2022-10-16T03:07:38;2.63;;;2.00;;
21591;SDS011;10958;50.892;3.992;2022-10-16T03:10:04;3.58;;;1.85;;
21591;SDS011;10958;50.892;3.992;2022-10-16T03:12:31;3.33;;;2.00;;
21591;SDS011;10958;50.892;3.992;2022-10-16T03:14:56;3.80;;;1.70;;
21591;SDS011;10958;50.892;3.992;2022-10-16T03:17:23;3.08;;;1.52;;
21591;SDS011;10958;50.892;3.992;2022-10-16T03:19:49;4.75;;;1.58;;
21591;SDS011;10958;50.892;3.992;2022-10-16T03:22:15;3.20;;;2.10;;
21591;SDS011;10958;50.892;3.992;2022-10-16T03:24:41;4.57;;;2.20;;
21591;SDS011;10958;50.892;3.992;2022-10-16T03:27:07;2.00;;;1.80;;
21591;SDS011;10958;50.892;3.992;2022-10-16T03:29:33;4.10;;;1.85;;
21591;SDS011;10958;50.892;3.992;2022-10-16T03:31:59;2.88;;;2.00;;
21591;SDS011;10958;50.892;3.992;2022-10-16T03:34:25;3.10;;;1.73;;
21591;SDS011;10958;50.892;3.992;2022-10-16T03:36:50;4.03;;;1.90;;
21591;SDS011;10958;50.892;3.992;2022-10-16T03:39:17;4.05;;;2.00;;
21591;SDS011;10958;50.892;3.992;2022-10-16T03:41:43;4.25;;;1.92;;
21591;SDS011;10958;50.892;3.992;2022-10-16T03:44:08;2.83;;;1.70;;
21591;SDS011;10958;50.892;3.992;2022-10-16T03:46:34;3.30;;;2.00;;
21591;SDS011;10958;50.892;3.992;2022-10-16T03:49:00;4.15;;;1.90;;
21591;SDS011;10958;50.892;3.992;2022-10-16T03:51:26;3.75;;;1.98;;
21591;SDS011;10958;50.892;3.992;2022-10-16T03:53:51;4.68;;;2.42;;
21591;SDS011;10958;50.892;3.992;2022-10-16T03:56:17;3.50;;;1.90;;
21591;SDS011;10958;50.892;3.992;2022-10-16T03:58:45;2.78;;;1.75;;
21591;SDS011;10958;50.892;3.992;2022-10-16T04:01:11;3.22;;;1.92;;
21591;SDS011;10958;50.892;3.992;2022-10-16T04:03:36;2.67;;;2.20;;
21591;SDS011;10958;50.892;3.992;2022-10-16T04:06:04;2.72;;;2.17;;
21591;SDS011;10958;50.892;3.992;2022-10-16T04:08:30;4.15;;;2.28;;
21591;SDS011;10958;50.892;3.992;2022-10-16T04:10:55;4.13;;;2.28;;
21591;SDS011;10958;50.892;3.992;2022-10-16T04:13:23;4.88;;;2.38;;
21591;SDS011;10958;50.892;3.992;2022-10-16T04:15:49;2.78;;;2.20;;
21591;SDS011;10958;50.892;3.992;2022-10-16T04:18:15;2.95;;;2.00;;
21591;SDS011;10958;50.892;3.992;2022-10-16T04:20:41;4.60;;;2.08;;
21591;SDS011;10958;50.892;3.992;2022-10-16T04:23:06;3.83;;;2.25;;
21591;SDS011;10958;50.892;3.992;2022-10-16T04:25:32;3.65;;;1.90;;
21591;SDS011;10958;50.892;3.992;2022-10-16T04:28:02;1.88;;;1.63;;
21591;SDS011;10958;50.892;3.992;2022-10-16T04:32:56;2.33;;;1.80;;
21591;SDS011;10958;50.892;3.992;2022-10-16T04:35:22;3.05;;;1.70;;
21591;SDS011;10958;50.892;3.992;2022-10-16T04:37:47;3.78;;;2.13;;
21591;SDS011;10958;50.892;3.992;2022-10-16T04:40:13;4.00;;;2.33;;
21591;SDS011;10958;50.892;3.992;2022-10-16T04:42:39;4.63;;;2.40;;
21591;SDS011;10958;50.892;3.992;2022-10-16T04:45:06;5.50;;;2.40;;
21591;SDS011;10958;50.892;3.992;2022-10-16T04:47:33;5.43;;;2.38;;
21591;SDS011;10958;50.892;3.992;2022-10-16T04:49:58;3.58;;;2.20;;
21591;SDS011;10958;50.892;3.992;2022-10-16T04:52:28;2.67;;;1.90;;
21591;SDS011;10958;50.892;3.992;2022-10-16T04:54:54;2.77;;;1.97;;
21591;SDS011;10958;50.892;3.992;2022-10-16T04:57:21;5.35;;;2.03;;
21591;SDS011;10958;50.892;3.992;2022-10-16T04:59:47;5.85;;;1.92;;
21591;SDS011;10958;50.892;3.992;2022-10-16T05:02:12;2.50;;;1.75;;
21591;SDS011;10958;50.892;3.992;2022-10-16T05:04:38;3.33;;;2.00;;
21591;SDS011;10958;50.892;3.992;2022-10-16T05:07:04;3.90;;;1.90;;
21591;SDS011;10958;50.892;3.992;2022-10-16T05:09:30;3.63;;;1.80;;
21591;SDS011;10958;50.892;3.992;2022-10-16T05:11:56;5.13;;;1.90;;
21591;SDS011;10958;50.892;3.992;2022-10-16T05:14:22;5.55;;;2.10;;
21591;SDS011;10958;50.892;3.992;2022-10-16T05:16:47;6.43;;;2.30;;
21591;SDS011;10958;50.892;3.992;2022-10-16T05:19:14;3.85;;;1.90;;
21591;SDS011;10958;50.892;3.992;2022-10-16T05:21:42;4.90;;;1.90;;
21591;SDS011;10958;50.892;3.992;2022-10-16T05:24:07;4.60;;;1.95;;
21591;SDS011;10958;50.892;3.992;2022-10-16T05:26:35;6.53;;;1.98;;
21591;SDS011;10958;50.892;3.992;2022-10-16T05:29:01;3.30;;;2.05;;
21591;SDS011;10958;50.892;3.992;2022-10-16T05:31:27;5.07;;;2.40;;
21591;SDS011;10958;50.892;3.992;2022-10-16T05:33:57;4.53;;;2.45;;
21591;SDS011;10958;50.892;3.992;2022-10-16T05:36:23;2.10;;;1.90;;
21591;SDS011;10958;50.892;3.992;2022-10-16T05:38:50;3.78;;;2.20;;
21591;SDS011;10958;50.892;3.992;2022-10-16T05:41:16;4.07;;;2.20;;
21591;SDS011;10958;50.892;3.992;2022-10-16T05:43:47;3.97;;;2.13;;
21591;SDS011;10958;50.892;3.992;2022-10-16T05:46:13;5.85;;;1.92;;
21591;SDS011;10958;50.892;3.992;2022-10-16T05:48:38;4.72;;;2.38;;
21591;SDS011;10958;50.892;3.992;2022-10-16T05:51:05;6.10;;;2.08;;
21591;SDS011;10958;50.892;3.992;2022-10-16T05:53:33;4.03;;;2.00;;
21591;SDS011;10958;50.892;3.992;2022-10-16T05:56:00;4.97;;;2.25;;
21591;SDS011;10958;50.892;3.992;2022-10-16T05:58:34;9.07;;;2.22;;
21591;SDS011;10958;50.892;3.992;2022-10-16T06:01:19;6.75;;;2.50;;
21591;SDS011;10958;50.892;3.992;2022-10-16T06:03:45;7.53;;;2.85;;
21591;SDS011;10958;50.892;3.992;2022-10-16T06:06:22;3.50;;;2.28;;
21591;SDS011;10958;50.892;3.992;2022-10-16T06:08:50;4.25;;;1.95;;
21591;SDS011;10958;50.892;3.992;2022-10-16T06:11:17;7.85;;;1.92;;
21591;SDS011;10958;50.892;3.992;2022-10-16T06:13:49;3.25;;;2.28;;
21591;SDS011;10958;50.892;3.992;2022-10-16T06:16:17;3.85;;;2.00;;
21591;SDS011;10958;50.892;3.992;2022-10-16T06:18:44;4.68;;;1.77;;
21591;SDS011;10958;50.892;3.992;2022-10-16T06:21:13;5.80;;;2.58;;
21591;SDS011;10958;50.892;3.992;2022-10-16T06:23:41;4.03;;;2.08;;
21591;SDS011;10958;50.892;3.992;2022-10-16T06:26:09;4.40;;;2.08;;
21591;SDS011;10958;50.892;3.992;2022-10-16T06:28:36;5.05;;;2.10;;
21591;SDS011;10958;50.892;3.992;2022-10-16T06:31:03;3.58;;;2.10;;
21591;SDS011;10958;50.892;3.992;2022-10-16T06:33:29;4.63;;;2.05;;
21591;SDS011;10958;50.892;3.992;2022-10-16T06:36:02;3.70;;;1.90;;
21591;SDS011;10958;50.892;3.992;2022-10-16T06:38:29;4.40;;;2.10;;
21591;SDS011;10958;50.892;3.992;2022-10-16T06:40:55;5.05;;;2.33;;
21591;SDS011;10958;50.892;3.992;2022-10-16T06:43:21;4.25;;;2.30;;
21591;SDS011;10958;50.892;3.992;2022-10-16T06:45:50;5.78;;;2.70;;
21591;SDS011;10958;50.892;3.992;2022-10-16T06:48:17;5.05;;;2.88;;
21591;SDS011;10958;50.892;3.992;2022-10-16T06:50:43;5.15;;;2.30;;
21591;SDS011;10958;50.892;3.992;2022-10-16T06:53:09;7.68;;;4.03;;
21591;SDS011;10958;50.892;3.992;2022-10-16T06:55:35;8.98;;;4.70;;
21591;SDS011;10958;50.892;3.992;2022-10-16T06:58:00;8.43;;;2.60;;
21591;SDS011;10958;50.892;3.992;2022-10-16T07:00:27;5.50;;;2.05;;
21591;SDS011;10958;50.892;3.992;2022-10-16T07:02:55;2.67;;;1.73;;
21591;SDS011;10958;50.892;3.992;2022-10-16T07:05:20;4.53;;;2.20;;
21591;SDS011;10958;50.892;3.992;2022-10-16T07:07:46;5.40;;;3.05;;
21591;SDS011;10958;50.892;3.992;2022-10-16T07:10:12;3.60;;;1.88;;
21591;SDS011;10958;50.892;3.992;2022-10-16T07:12:38;5.82;;;2.33;;
21591;SDS011;10958;50.892;3.992;2022-10-16T07:15:04;2.33;;;1.63;;
21591;SDS011;10958;50.892;3.992;2022-10-16T07:17:30;4.07;;;1.92;;
21591;SDS011;10958;50.892;3.992;2022-10-16T07:19:57;2.03;;;1.83;;
21591;SDS011;10958;50.892;3.992;2022-10-16T07:22:23;3.67;;;1.77;;
21591;SDS011;10958;50.892;3.992;2022-10-16T07:24:49;4.78;;;1.67;;
21591;SDS011;10958;50.892;3.992;2022-10-16T07:27:19;3.70;;;2.03;;
21591;SDS011;10958;50.892;3.992;2022-10-16T07:29:48;4.35;;;2.15;;
21591;SDS011;10958;50.892;3.992;2022-10-16T07:32:14;4.25;;;2.00;;
21591;SDS011;10958;50.892;3.992;2022-10-16T07:34:41;2.67;;;1.50;;
21591;SDS011;10958;50.892;3.992;2022-10-16T07:37:07;1.70;;;1.27;;
21591;SDS011;10958;50.892;3.992;2022-10-16T07:39:33;3.25;;;1.75;;
21591;SDS011;10958;50.892;3.992;2022-10-16T07:42:02;5.38;;;2.55;;
21591;SDS011;10958;50.892;3.992;2022-10-16T07:44:28;9.30;;;5.25;;
21591;SDS011;10958;50.892;3.992;2022-10-16T07:46:53;6.72;;;2.50;;
21591;SDS011;10958;50.892;3.992;2022-10-16T07:49:20;4.97;;;1.77;;
21591;SDS011;10958;50.892;3.992;2022-10-16T07:51:48;3.53;;;1.90;;
21591;SDS011;10958;50.892;3.992;2022-10-16T07:54:14;3.72;;;1.73;;
21591;SDS011;10958;50.892;3.992;2022-10-16T07:56:40;5.90;;;2.22;;
21591;SDS011;10958;50.892;3.992;2022-10-16T07:59:06;3.78;;;1.38;;
21591;SDS011;10958;50.892;3.992;2022-10-16T08:01:31;5.70;;;1.85;;
21591;SDS011;10958;50.892;3.992;2022-10-16T08:03:57;5.35;;;1.70;;
21591;SDS011;10958;50.892;3.992;2022-10-16T08:06:23;4.90;;;1.70;;
21591;SDS011;10958;50.892;3.992;2022-10-16T08:08:55;5.63;;;1.63;;
21591;SDS011;10958;50.892;3.992;2022-10-16T08:11:21;7.95;;;1.58;;
21591;SDS011;10958;50.892;3.992;2022-10-16T08:13:52;4.55;;;1.20;;
21591;SDS011;10958;50.892;3.992;2022-10-16T08:16:18;4.95;;;1.35;;
21591;SDS011;10958;50.892;3.992;2022-10-16T08:18:44;4.47;;;1.30;;
21591;SDS011;10958;50.892;3.992;2022-10-16T08:21:12;4.47;;;1.20;;
21591;SDS011;10958;50.892;3.992;2022-10-16T08:23:40;4.18;;;1.10;;
21591;SDS011;10958;50.892;3.992;2022-10-16T08:26:07;3.50;;;1.40;;
21591;SDS011;10958;50.892;3.992;2022-10-16T08:28:33;3.88;;;1.25;;
21591;SDS011;10958;50.892;3.992;2022-10-16T08:31:13;5.15;;;1.58;;
21591;SDS011;10958;50.892;3.992;2022-10-16T08:33:41;7.28;;;1.33;;
21591;SDS011;10958;50.892;3.992;2022-10-16T08:36:09;3.45;;;1.20;;
21591;SDS011;10958;50.892;3.992;2022-10-16T08:38:36;2.58;;;1.40;;
21591;SDS011;10958;50.892;3.992;2022-10-16T08:49:38;3.75;;;1.33;;
21591;SDS011;10958;50.892;3.992;2022-10-16T08:52:10;5.57;;;1.52;;
21591;SDS011;10958;50.892;3.992;2022-10-16T08:54:39;3.70;;;1.30;;
21591;SDS011;10958;50.892;3.992;2022-10-16T08:57:19;4.07;;;1.42;;
21591;SDS011;10958;50.892;3.992;2022-10-16T08:59:46;4.15;;;1.02;;
21591;SDS011;10958;50.892;3.992;2022-10-16T09:02:36;4.10;;;1.30;;
21591;SDS011;10958;50.892;3.992;2022-10-16T09:05:15;3.70;;;1.42;;
21591;SDS011;10958;50.892;3.992;2022-10-16T09:07:46;9.73;;;1.70;;
21591;SDS011;10958;50.892;3.992;2022-10-16T09:13:28;5.82;;;1.55;;
21591;SDS011;10958;50.892;3.992;2022-10-16T09:21:51;4.72;;;1.00;;
21591;SDS011;10958;50.892;3.992;2022-10-16T09:24:19;3.25;;;1.15;;
21591;SDS011;10958;50.892;3.992;2022-10-16T09:26:46;6.32;;;1.20;;
21591;SDS011;10958;50.892;3.992;2022-10-16T09:29:13;4.85;;;1.40;;
21591;SDS011;10958;50.892;3.992;2022-10-16T09:31:41;2.85;;;1.23;;
21591;SDS011;10958;50.892;3.992;2022-10-16T09:36:52;3.17;;;1.20;;
21591;SDS011;10958;50.892;3.992;2022-10-16T09:39:18;2.90;;;1.00;;
21591;SDS011;10958;50.892;3.992;2022-10-16T09:41:44;4.82;;;1.27;;
21591;SDS011;10958;50.892;3.992;2022-10-16T09:46:47;4.78;;;0.98;;
21591;SDS011;10958;50.892;3.992;2022-10-16T09:51:45;5.13;;;1.20;;
21591;SDS011;10958;50.892;3.992;2022-10-16T09:54:13;4.38;;;1.25;;
21591;SDS011;10958;50.892;3.992;2022-10-16T09:56:45;4.07;;;1.25;;
21591;SDS011;10958;50.892;3.992;2022-10-16T09:59:20;4.22;;;1.20;;
21591;SDS011;10958;50.892;3.992;2022-10-16T10:03:40;6.35;;;2.67;;
21591;SDS011;10958;50.892;3.992;2022-10-16T10:08:54;9.57;;;2.30;;
21591;SDS011;10958;50.892;3.992;2022-10-16T10:11:45;6.30;;;1.95;;
21591;SDS011;10958;50.892;3.992;2022-10-16T10:16:48;7.95;;;1.90;;
21591;SDS011;10958;50.892;3.992;2022-10-16T10:19:18;3.95;;;1.02;;
21591;SDS011;10958;50.892;3.992;2022-10-16T10:21:47;3.83;;;1.40;;
21591;SDS011;10958;50.892;3.992;2022-10-16T10:24:14;6.30;;;1.45;;
21591;SDS011;10958;50.892;3.992;2022-10-16T10:26:44;5.07;;;1.17;;
21591;SDS011;10958;50.892;3.992;2022-10-16T10:35:07;5.57;;;1.58;;
21591;SDS011;10958;50.892;3.992;2022-10-16T10:43:06;7.97;;;1.80;;
21591;SDS011;10958;50.892;3.992;2022-10-16T10:45:46;3.65;;;1.27;;
21591;SDS011;10958;50.892;3.992;2022-10-16T10:50:58;7.88;;;2.50;;
21591;SDS011;10958;50.892;3.992;2022-10-16T10:53:42;5.68;;;1.77;;
21591;SDS011;10958;50.892;3.992;2022-10-16T11:01:45;4.13;;;1.10;;
21591;SDS011;10958;50.892;3.992;2022-10-16T11:07:13;8.65;;;2.08;;
21591;SDS011;10958;50.892;3.992;2022-10-16T11:09:51;5.30;;;2.20;;
21591;SDS011;10958;50.892;3.992;2022-10-16T11:12:33;3.28;;;1.17;;
21591;SDS011;10958;50.892;3.992;2022-10-16T11:15:16;4.32;;;1.10;;
21591;SDS011;10958;50.892;3.992;2022-10-16T11:17:59;4.55;;;1.10;;
21591;SDS011;10958;50.892;3.992;2022-10-16T11:20:42;7.15;;;1.42;;
21591;SDS011;10958;50.892;3.992;2022-10-16T11:23:25;4.78;;;1.20;;
21591;SDS011;10958;50.892;3.992;2022-10-16T11:25:56;7.57;;;1.52;;
21591;SDS011;10958;50.892;3.992;2022-10-16T11:28:31;3.08;;;1.23;;
21591;SDS011;10958;50.892;3.992;2022-10-16T11:31:11;5.93;;;1.40;;
21591;SDS011;10958;50.892;3.992;2022-10-16T11:33:49;3.92;;;1.02;;
21591;SDS011;10958;50.892;3.992;2022-10-16T11:36:31;3.72;;;1.33;;
21591;SDS011;10958;50.892;3.992;2022-10-16T11:41:55;3.72;;;1.95;;
21591;SDS011;10958;50.892;3.992;2022-10-16T11:47:36;7.65;;;1.60;;
21591;SDS011;10958;50.892;3.992;2022-10-16T11:52:57;4.45;;;1.20;;
21591;SDS011;10958;50.892;3.992;2022-10-16T11:55:45;4.85;;;1.00;;
21591;SDS011;10958;50.892;3.992;2022-10-16T12:01:17;5.32;;;1.00;;
21591;SDS011;10958;50.892;3.992;2022-10-16T12:09:24;7.03;;;1.23;;
21591;SDS011;10958;50.892;3.992;2022-10-16T12:11:53;6.07;;;1.65;;
21591;SDS011;10958;50.892;3.992;2022-10-16T12:14:34;3.92;;;1.40;;
21591;SDS011;10958;50.892;3.992;2022-10-16T12:17:27;3.28;;;0.80;;
21591;SDS011;10958;50.892;3.992;2022-10-16T12:20:25;3.30;;;0.93;;
21591;SDS011;10958;50.892;3.992;2022-10-16T12:22:52;6.40;;;2.08;;
21591;SDS011;10958;50.892;3.992;2022-10-16T12:31:44;4.93;;;1.10;;
21591;SDS011;10958;50.892;3.992;2022-10-16T12:34:53;3.53;;;1.10;;
21591;SDS011;10958;50.892;3.992;2022-10-16T12:37:34;2.10;;;1.20;;
21591;SDS011;10958;50.892;3.992;2022-10-16T12:48:37;8.27;;;2.45;;
21591;SDS011;10958;50.892;3.992;2022-10-16T12:51:34;5.45;;;3.13;;
21591;SDS011;10958;50.892;3.992;2022-10-16T13:15:09;3.10;;;1.13;;
21591;SDS011;10958;50.892;3.992;2022-10-16T13:18:05;2.70;;;0.68;;
21591;SDS011;10958;50.892;3.992;2022-10-16T13:26:12;5.05;;;2.35;;
21591;SDS011;10958;50.892;3.992;2022-10-16T13:28:48;4.75;;;0.70;;
21591;SDS011;10958;50.892;3.992;2022-10-16T13:31:19;4.53;;;1.10;;
21591;SDS011;10958;50.892;3.992;2022-10-16T13:33:56;2.60;;;0.65;;
21591;SDS011;10958;50.892;3.992;2022-10-16T13:36:25;2.83;;;0.80;;
21591;SDS011;10958;50.892;3.992;2022-10-16T13:39:00;2.58;;;1.00;;
21591;SDS011;10958;50.892;3.992;2022-10-16T13:41:46;3.28;;;0.98;;
21591;SDS011;10958;50.892;3.992;2022-10-16T13:44:48;1.77;;;1.20;;
21591;SDS011;10958;50.892;3.992;2022-10-16T13:47:28;3.10;;;1.10;;
21591;SDS011;10958;50.892;3.992;2022-10-16T13:52:27;2.47;;;0.95;;
21591;SDS011;10958;50.892;3.992;2022-10-16T13:54:54;3.17;;;1.05;;
21591;SDS011;10958;50.892;3.992;2022-10-16T13:57:21;3.03;;;1.50;;
21591;SDS011;10958;50.892;3.992;2022-10-16T13:59:50;2.17;;;0.90;;
21591;SDS011;10958;50.892;3.992;2022-10-16T14:05:00;4.50;;;1.73;;
21591;SDS011;10958;50.892;3.992;2022-10-16T14:07:29;4.13;;;1.20;;
21591;SDS011;10958;50.892;3.992;2022-10-16T14:09:59;1.15;;;0.73;;
21591;SDS011;10958;50.892;3.992;2022-10-16T14:12:31;5.28;;;0.85;;
21591;SDS011;10958;50.892;3.992;2022-10-16T14:14:59;2.08;;;0.60;;
21591;SDS011;10958;50.892;3.992;2022-10-16T14:17:27;4.68;;;0.90;;
21591;SDS011;10958;50.892;3.992;2022-10-16T14:19:59;2.08;;;0.68;;
21591;SDS011;10958;50.892;3.992;2022-10-16T14:22:34;2.97;;;0.65;;
21591;SDS011;10958;50.892;3.992;2022-10-16T14:28:02;1.10;;;0.60;;
21591;SDS011;10958;50.892;3.992;2022-10-16T14:30:56;2.28;;;0.60;;
21591;SDS011;10958;50.892;3.992;2022-10-16T14:38:37;5.03;;;1.15;;
21591;SDS011;10958;50.892;3.992;2022-10-16T14:41:10;3.50;;;0.70;;
21591;SDS011;10958;50.892;3.992;2022-10-16T14:43:41;3.08;;;0.90;;
21591;SDS011;10958;50.892;3.992;2022-10-16T14:46:16;5.50;;;0.85;;
21591;SDS011;10958;50.892;3.992;2022-10-16T14:48:47;3.35;;;1.00;;
21591;SDS011;10958;50.892;3.992;2022-10-16T14:51:16;4.20;;;0.82;;
21591;SDS011;10958;50.892;3.992;2022-10-16T14:53:45;6.35;;;0.88;;
21591;SDS011;10958;50.892;3.992;2022-10-16T14:56:16;3.60;;;0.88;;
21591;SDS011;10958;50.892;3.992;2022-10-16T14:58:44;1.55;;;0.90;;
21591;SDS011;10958;50.892;3.992;2022-10-16T15:01:10;3.72;;;0.90;;
21591;SDS011;10958;50.892;3.992;2022-10-16T15:03:37;3.15;;;1.05;;
21591;SDS011;10958;50.892;3.992;2022-10-16T15:06:12;4.07;;;0.80;;
21591;SDS011;10958;50.892;3.992;2022-10-16T15:08:42;2.15;;;0.80;;
21591;SDS011;10958;50.892;3.992;2022-10-16T15:11:09;3.53;;;0.80;;
21591;SDS011;10958;50.892;3.992;2022-10-16T15:13:39;2.88;;;0.73;;
21591;SDS011;10958;50.892;3.992;2022-10-16T15:16:07;2.25;;;0.80;;
21591;SDS011;10958;50.892;3.992;2022-10-16T15:18:38;5.57;;;0.90;;
21591;SDS011;10958;50.892;3.992;2022-10-16T15:21:04;3.08;;;1.20;;
21591;SDS011;10958;50.892;3.992;2022-10-16T15:23:31;5.60;;;0.85;;
21591;SDS011;10958;50.892;3.992;2022-10-16T15:25:56;3.60;;;0.95;;
21591;SDS011;10958;50.892;3.992;2022-10-16T15:28:23;3.90;;;0.95;;
21591;SDS011;10958;50.892;3.992;2022-10-16T15:30:50;3.17;;;1.00;;
21591;SDS011;10958;50.892;3.992;2022-10-16T15:33:22;3.25;;;1.08;;
21591;SDS011;10958;50.892;3.992;2022-10-16T15:35:50;2.08;;;0.70;;
21591;SDS011;10958;50.892;3.992;2022-10-16T15:38:18;2.85;;;1.05;;
21591;SDS011;10958;50.892;3.992;2022-10-16T15:40:48;2.97;;;1.08;;
21591;SDS011;10958;50.892;3.992;2022-10-16T15:43:14;2.55;;;1.17;;
21591;SDS011;10958;50.892;3.992;2022-10-16T15:45:40;2.60;;;1.30;;
21591;SDS011;10958;50.892;3.992;2022-10-16T15:48:10;3.00;;;1.10;;
21591;SDS011;10958;50.892;3.992;2022-10-16T15:50:37;2.05;;;1.23;;
21591;SDS011;10958;50.892;3.992;2022-10-16T15:53:03;2.17;;;1.17;;
21591;SDS011;10958;50.892;3.992;2022-10-16T15:55:30;2.90;;;1.40;;
21591;SDS011;10958;50.892;3.992;2022-10-16T15:57:58;3.33;;;1.23;;
21591;SDS011;10958;50.892;3.992;2022-10-16T16:00:23;5.28;;;1.60;;
21591;SDS011;10958;50.892;3.992;2022-10-16T16:02:52;3.70;;;1.67;;
21591;SDS011;10958;50.892;3.992;2022-10-16T16:05:20;5.45;;;1.90;;
21591;SDS011;10958;50.892;3.992;2022-10-16T16:07:47;2.85;;;1.60;;
21591;SDS011;10958;50.892;3.992;2022-10-16T16:10:13;5.07;;;1.67;;
21591;SDS011;10958;50.892;3.992;2022-10-16T16:12:40;2.72;;;1.20;;
21591;SDS011;10958;50.892;3.992;2022-10-16T16:15:06;4.38;;;1.20;;
21591;SDS011;10958;50.892;3.992;2022-10-16T16:17:33;4.03;;;1.60;;
21591;SDS011;10958;50.892;3.992;2022-10-16T16:19:59;3.30;;;0.82;;
21591;SDS011;10958;50.892;3.992;2022-10-16T16:22:25;3.88;;;1.48;;
21591;SDS011;10958;50.892;3.992;2022-10-16T16:24:51;2.05;;;1.10;;
21591;SDS011;10958;50.892;3.992;2022-10-16T16:27:17;4.93;;;1.38;;
21591;SDS011;10958;50.892;3.992;2022-10-16T16:29:44;3.83;;;1.25;;
21591;SDS011;10958;50.892;3.992;2022-10-16T16:32:10;4.53;;;1.70;;
21591;SDS011;10958;50.892;3.992;2022-10-16T16:34:36;2.47;;;1.33;;
21591;SDS011;10958;50.892;3.992;2022-10-16T16:37:02;4.30;;;1.55;;
21591;SDS011;10958;50.892;3.992;2022-10-16T16:39:28;3.55;;;1.55;;
21591;SDS011;10958;50.892;3.992;2022-10-16T16:41:57;4.22;;;1.40;;
21591;SDS011;10958;50.892;3.992;2022-10-16T16:44:29;4.63;;;1.50;;
21591;SDS011;10958;50.892;3.992;2022-10-16T16:46:57;4.35;;;1.50;;
21591;SDS011;10958;50.892;3.992;2022-10-16T16:49:25;4.18;;;1.50;;
21591;SDS011;10958;50.892;3.992;2022-10-16T16:51:58;3.83;;;1.20;;
21591;SDS011;10958;50.892;3.992;2022-10-16T16:54:26;5.07;;;3.33;;
21591;SDS011;10958;50.892;3.992;2022-10-16T16:56:51;5.93;;;3.10;;
21591;SDS011;10958;50.892;3.992;2022-10-16T16:59:18;6.97;;;2.72;;
21591;SDS011;10958;50.892;3.992;2022-10-16T17:04:12;8.02;;;2.92;;
21591;SDS011;10958;50.892;3.992;2022-10-16T17:06:40;6.80;;;2.92;;
21591;SDS011;10958;50.892;3.992;2022-10-16T17:09:06;7.47;;;6.00;;
21591;SDS011;10958;50.892;3.992;2022-10-16T17:11:32;7.85;;;4.32;;
21591;SDS011;10958;50.892;3.992;2022-10-16T17:13:59;8.13;;;4.13;;
21591;SDS011;10958;50.892;3.992;2022-10-16T17:16:27;9.48;;;4.50;;
21591;SDS011;10958;50.892;3.992;2022-10-16T17:18:55;13.65;;;5.65;;
21591;SDS011;10958;50.892;3.992;2022-10-16T17:21:23;12.13;;;4.82;;
21591;SDS011;10958;50.892;3.992;2022-10-16T17:23:54;7.10;;;3.47;;